createdAt,value
2023-02-23T00:02:20.440Z,0.99
2023-02-23T00:07:24.149Z,0.93
2023-02-23T00:12:27.740Z,0.88
2023-02-23T00:17:32.946Z,0.83
2023-02-23T00:22:36.351Z,0.78
2023-02-23T00:27:44.055Z,0.72
2023-02-23T00:32:48.703Z,0.67
2023-02-23T00:37:52.408Z,0.63
2023-02-23T00:42:57.547Z,0.57
2023-02-23T00:48:02.990Z,0.52
2023-02-23T00:53:06.471Z,0.48
2023-02-23T00:58:10.355Z,0.45
2023-02-23T01:03:13.962Z,0.42
2023-02-23T01:08:18.562Z,0.39
2023-02-23T01:13:23.182Z,0.36
2023-02-23T01:18:27.029Z,0.34
2023-02-23T01:23:32.066Z,0.30
2023-02-23T01:28:35.509Z,0.27
2023-02-23T01:33:39.352Z,0.22
2023-02-23T01:38:42.762Z,0.17
2023-02-23T01:43:57.890Z,0.15
2023-02-23T01:49:03.229Z,0.11
2023-02-23T01:54:10.361Z,0.08
2023-02-23T01:59:17.794Z,0.05
2023-02-23T02:04:24.648Z,0.01
2023-02-23T02:09:28.353Z,-0.03
2023-02-23T02:14:32.813Z,-0.06
2023-02-23T02:20:30.672Z,-0.10
2023-02-23T02:25:54.861Z,-0.13
2023-02-23T02:31:35.667Z,-0.14
2023-02-23T02:37:00.081Z,-0.15
2023-02-23T02:42:17.352Z,-0.17
2023-02-23T02:47:29.168Z,-0.16
2023-02-23T02:52:39.726Z,-0.18
2023-02-23T02:57:47.489Z,-0.19
2023-02-23T03:03:09.538Z,-0.20
2023-02-23T03:08:39.269Z,-0.20
2023-02-23T03:14:13.692Z,-0.20
2023-02-23T03:19:42.914Z,-0.20
2023-02-23T03:25:12.664Z,-0.21
2023-02-23T03:30:41.741Z,-0.19
2023-02-23T03:36:10.636Z,-0.18
2023-02-23T03:41:35.755Z,-0.16
2023-02-23T03:46:59.517Z,-0.13
2023-02-23T03:52:27.404Z,-0.14
2023-02-23T03:57:53.355Z,-0.13
2023-02-23T04:03:17.785Z,-0.08
2023-02-23T04:08:43.598Z,-0.06
2023-02-23T04:13:53.843Z,-0.03
2023-02-23T04:18:57.282Z,-0.03
2023-02-23T04:24:00.696Z,-0.02
2023-02-23T04:29:04.164Z,-0.02
2023-02-23T04:34:07.691Z,-0.01
2023-02-23T04:39:11.145Z,0.01
2023-02-23T04:44:14.513Z,0.00
2023-02-23T04:49:17.960Z,0.01
2023-02-23T04:54:21.352Z,0.03
2023-02-23T04:59:24.904Z,0.03
2023-02-23T05:04:28.412Z,0.03
2023-02-23T05:09:32.747Z,0.04
2023-02-23T05:14:36.328Z,0.06
2023-02-23T05:19:39.740Z,0.07
2023-02-23T05:24:43.468Z,0.05
2023-02-23T05:29:46.878Z,0.04
2023-02-23T05:34:50.254Z,0.04
2023-02-23T05:39:53.747Z,0.04
2023-02-23T05:44:57.181Z,0.03
2023-02-23T05:50:00.746Z,0.02
2023-02-23T05:55:05.089Z,0.01
2023-02-23T06:00:11.381Z,0.01
2023-02-23T06:05:14.979Z,0.02
2023-02-23T06:10:18.940Z,0.03
2023-02-23T06:15:22.384Z,0.04
2023-02-23T06:20:26.121Z,0.05
2023-02-23T06:25:29.787Z,0.09
2023-02-23T06:30:33.193Z,0.14
2023-02-23T06:35:36.590Z,0.20
2023-02-23T06:40:40.895Z,0.27
2023-02-23T06:45:45.781Z,0.35
2023-02-23T06:50:49.332Z,0.44
2023-02-23T06:55:52.763Z,0.53
2023-02-23T07:00:56.751Z,0.63
2023-02-23T07:06:00.182Z,0.72
2023-02-23T07:11:08.976Z,0.82
2023-02-23T07:16:14.399Z,0.93
2023-02-23T07:21:18.333Z,1.03
2023-02-23T07:26:22.060Z,1.14
2023-02-23T07:31:26.025Z,1.25
2023-02-23T07:36:29.563Z,1.37
2023-02-23T07:41:33.046Z,1.50
2023-02-23T07:46:37.040Z,1.62
2023-02-23T07:51:41.508Z,1.76
2023-02-23T07:56:44.852Z,1.89
2023-02-23T08:01:48.434Z,2.02
2023-02-23T08:06:51.761Z,2.18
2023-02-23T08:11:55.158Z,2.32
2023-02-23T08:17:01.018Z,2.47
2023-02-23T08:22:04.825Z,2.63
2023-02-23T08:27:08.246Z,2.77
2023-02-23T08:32:11.836Z,2.93
2023-02-23T08:37:15.502Z,3.09
2023-02-23T08:42:46.537Z,3.26
2023-02-23T08:48:07.272Z,3.48
2023-02-23T08:53:11.238Z,3.69
2023-02-23T08:58:14.687Z,3.86
2023-02-23T09:03:18.378Z,4.01
2023-02-23T09:08:22.287Z,4.15
2023-02-23T09:13:25.714Z,4.31
2023-02-23T09:18:30.078Z,4.52
2023-02-23T09:23:34.195Z,4.73
2023-02-23T09:28:39.209Z,5.01
2023-02-23T09:33:42.822Z,5.21
2023-02-23T09:38:49.276Z,5.32
2023-02-23T09:44:01.564Z,5.48
2023-02-23T09:49:12.146Z,5.68
2023-02-23T09:54:18.066Z,5.87
2023-02-23T09:59:22.354Z,6.10
2023-02-23T10:04:30.251Z,6.32
2023-02-23T10:09:54.598Z,6.50
2023-02-23T10:15:12.162Z,6.70
2023-02-23T10:20:25.444Z,6.92
2023-02-23T10:25:33.975Z,7.14
2023-02-23T10:30:39.722Z,7.34
2023-02-23T10:35:44.523Z,7.49
2023-02-23T10:40:56.156Z,7.70
2023-02-23T10:45:59.624Z,7.87
2023-02-23T10:51:03.899Z,8.10
2023-02-23T10:56:10.662Z,8.32
2023-02-23T11:01:16.868Z,8.54
2023-02-23T11:06:32.039Z,8.62
2023-02-23T11:11:35.498Z,8.69
2023-02-23T11:16:39.677Z,8.72
2023-02-23T11:21:51.537Z,8.75
2023-02-23T11:26:57.335Z,8.78
2023-02-23T11:32:09.576Z,8.84
2023-02-23T11:37:21.063Z,8.96
2023-02-23T11:42:26.569Z,8.98
2023-02-23T11:47:31.757Z,9.08
2023-02-23T11:52:35.878Z,9.16
2023-02-23T11:57:39.258Z,9.09
2023-02-23T12:02:51.033Z,9.15
2023-02-23T12:08:01.123Z,9.27
2023-02-23T12:13:18.902Z,9.43
2023-02-23T12:18:37.812Z,9.67
2023-02-23T12:23:46.020Z,9.98
2023-02-23T12:28:58.110Z,10.41
2023-02-23T12:34:05.006Z,10.76
2023-02-23T12:39:21.222Z,11.03
2023-02-23T12:44:37.023Z,11.10
2023-02-23T12:49:44.551Z,11.16
2023-02-23T12:54:48.323Z,11.30
2023-02-23T13:00:30.250Z,11.44
2023-02-23T13:05:39.330Z,11.54
2023-02-23T13:10:51.458Z,11.63
2023-02-23T13:16:03.086Z,11.81
2023-02-23T13:21:14.714Z,12.07
2023-02-23T13:26:30.494Z,12.15
2023-02-23T13:31:36.787Z,12.16
2023-02-23T13:36:42.364Z,12.33
2023-02-23T13:41:51.325Z,12.32
2023-02-23T13:47:00.460Z,12.49
2023-02-23T13:52:14.110Z,12.74
2023-02-23T13:57:17.586Z,13.05
2023-02-23T14:02:34.352Z,13.43
2023-02-23T14:07:43.405Z,14.14
2023-02-23T14:13:06.498Z,14.68
2023-02-23T14:18:29.838Z,14.94
2023-02-23T14:23:48.630Z,14.89
2023-02-23T14:29:35.345Z,14.29
2023-02-23T14:34:48.291Z,13.96
2023-02-23T14:39:53.868Z,13.69
2023-02-23T14:45:03.785Z,13.51
2023-02-23T14:50:16.769Z,13.29
2023-02-23T14:55:23.781Z,13.07
2023-02-23T15:00:31.774Z,12.97
2023-02-23T15:05:41.962Z,12.85
2023-02-23T15:10:47.912Z,12.82
2023-02-23T15:15:51.450Z,12.62
2023-02-23T15:20:55.135Z,12.40
2023-02-23T15:25:59.107Z,12.12
2023-02-23T15:31:04.044Z,11.96
2023-02-23T15:36:09.781Z,11.76
2023-02-23T15:41:29.184Z,11.58
2023-02-23T15:46:35.005Z,11.31
2023-02-23T15:51:43.856Z,11.02
2023-02-23T15:56:50.672Z,10.79
2023-02-23T16:01:54.476Z,10.66
2023-02-23T16:07:14.923Z,10.46
2023-02-23T16:12:22.315Z,10.25
2023-02-23T16:17:31.129Z,10.05
2023-02-23T16:22:36.143Z,9.87
2023-02-23T16:27:41.751Z,9.72
2023-02-23T16:32:45.389Z,9.56
2023-02-23T16:37:57.795Z,9.42
2023-02-23T16:43:02.129Z,9.27
2023-02-23T16:48:10.884Z,9.12
2023-02-23T16:53:14.686Z,8.95
2023-02-23T16:58:20.776Z,8.78
2023-02-23T17:03:26.620Z,8.57
2023-02-23T17:08:31.100Z,8.37
2023-02-23T17:13:35.495Z,8.23
2023-02-23T17:18:42.808Z,8.10
2023-02-23T17:23:50.226Z,7.97
2023-02-23T17:28:53.928Z,7.81
2023-02-23T17:33:57.712Z,7.66
2023-02-23T17:39:01.823Z,7.54
2023-02-23T17:44:05.514Z,7.43
2023-02-23T17:49:08.976Z,7.34
2023-02-23T17:54:12.387Z,7.25
2023-02-23T17:59:15.743Z,7.18
2023-02-23T18:04:19.107Z,7.11
2023-02-23T18:09:22.648Z,7.01
2023-02-23T18:14:26.124Z,6.95
2023-02-23T18:19:30.344Z,6.88
2023-02-23T18:24:35.642Z,6.78
2023-02-23T18:29:39.414Z,6.70
2023-02-23T18:34:42.895Z,6.65
2023-02-23T18:39:51.500Z,6.60
2023-02-23T18:44:55.008Z,6.55
2023-02-23T18:50:01.199Z,6.49
2023-02-23T18:55:06.739Z,6.45
2023-02-23T19:00:13.429Z,6.37
2023-02-23T19:05:18.494Z,6.30
2023-02-23T19:10:23.004Z,6.21
2023-02-23T19:15:26.414Z,6.13
2023-02-23T19:20:35.018Z,6.06
2023-02-23T19:25:38.801Z,6.00
2023-02-23T19:30:45.062Z,5.96
2023-02-23T19:35:49.685Z,5.95
2023-02-23T19:40:53.286Z,5.96
2023-02-23T19:46:01.960Z,5.91
2023-02-23T19:51:09.581Z,5.84
2023-02-23T19:56:15.894Z,5.79
2023-02-23T20:01:22.378Z,5.73
2023-02-23T20:06:29.959Z,5.63
2023-02-23T20:11:33.383Z,5.53
2023-02-23T20:16:37.035Z,5.44
2023-02-23T20:21:41.407Z,5.37
2023-02-23T20:26:45.862Z,5.30
2023-02-23T20:31:51.016Z,5.26
2023-02-23T20:36:55.204Z,5.26
2023-02-23T20:41:58.661Z,5.27
2023-02-23T20:47:02.110Z,5.31
2023-02-23T20:52:05.950Z,5.37
2023-02-23T20:57:09.435Z,5.43
2023-02-23T21:02:14.743Z,5.65
2023-02-23T21:07:21.636Z,5.89
2023-02-23T21:12:25.851Z,6.15
2023-02-23T21:17:29.345Z,6.39
2023-02-23T21:22:33.067Z,6.66
2023-02-23T21:27:36.669Z,6.94
2023-02-23T21:32:40.891Z,7.12
2023-02-23T21:37:44.329Z,7.20
2023-02-23T21:42:48.962Z,7.26
2023-02-23T21:47:52.395Z,7.31
2023-02-23T21:52:57.603Z,7.36
2023-02-23T21:58:01.327Z,7.40
2023-02-23T22:03:05.031Z,7.40
2023-02-23T22:08:08.529Z,7.40
2023-02-23T22:13:11.867Z,7.41
2023-02-23T22:18:15.479Z,7.39
2023-02-23T22:23:18.838Z,7.40
2023-02-23T22:28:22.236Z,7.39
2023-02-23T22:33:25.714Z,7.38
2023-02-23T22:38:30.102Z,7.40
2023-02-23T22:43:33.834Z,7.41
2023-02-23T22:48:37.530Z,7.45
2023-02-23T22:53:41.425Z,7.49
2023-02-23T22:58:45.218Z,7.55
2023-02-23T23:03:48.769Z,7.62
2023-02-23T23:08:55.059Z,7.66
2023-02-23T23:14:01.342Z,7.66
2023-02-23T23:19:07.367Z,7.68
2023-02-23T23:24:12.920Z,7.74
2023-02-23T23:29:17.350Z,7.81
2023-02-23T23:34:21.080Z,7.85
2023-02-23T23:39:25.677Z,7.92
2023-02-23T23:44:29.615Z,7.98
2023-02-23T23:49:37.102Z,8.02
2023-02-23T23:54:42.175Z,8.05
2023-02-23T23:59:46.811Z,8.06
